createdAt,value
2018-07-05T08:24:45.855Z,27.00
2018-07-05T08:27:14.201Z,27.29
2018-07-05T08:29:41.735Z,27.42
2018-07-05T08:32:09.483Z,27.48
2018-07-05T08:34:37.392Z,26.87
2018-07-05T08:37:04.950Z,26.89
2018-07-05T08:39:32.662Z,27.25
2018-07-05T08:42:00.352Z,27.45
2018-07-05T08:44:28.204Z,27.74
2018-07-05T08:46:55.844Z,27.87
2018-07-05T08:49:23.332Z,27.74
2018-07-05T08:51:50.896Z,27.80
2018-07-05T08:54:18.466Z,27.44
2018-07-05T08:56:45.863Z,27.68
2018-07-05T08:59:14.004Z,27.37
2018-07-05T09:01:41.967Z,27.16
2018-07-05T09:04:09.490Z,27.16
2018-07-05T09:06:37.062Z,26.97
2018-07-05T09:09:05.427Z,27.03
2018-07-05T09:11:33.795Z,27.41
2018-07-05T09:14:01.174Z,27.97
2018-07-05T09:16:28.960Z,28.16
2018-07-05T09:18:56.565Z,28.07
2018-07-05T09:21:23.906Z,28.12
2018-07-05T09:23:51.270Z,28.40
2018-07-05T09:26:18.623Z,28.48
2018-07-05T09:28:46.001Z,28.44
2018-07-05T09:31:14.675Z,28.59
2018-07-05T09:33:42.024Z,28.61
2018-07-05T09:36:09.970Z,28.71
2018-07-05T09:38:37.325Z,28.69
2018-07-05T09:41:05.041Z,28.58
2018-07-05T09:43:32.719Z,28.79
2018-07-05T09:46:00.299Z,28.73
2018-07-05T09:48:27.723Z,29.05
2018-07-05T09:50:55.180Z,29.12
2018-07-05T09:53:22.749Z,29.35
2018-07-05T09:55:50.921Z,29.85
2018-07-05T09:58:18.518Z,29.57
2018-07-05T10:00:49.154Z,30.03
2018-07-05T10:03:18.855Z,29.98
2018-07-05T10:05:46.715Z,29.15
2018-07-05T10:08:17.330Z,29.35
2018-07-05T10:10:44.956Z,28.99
2018-07-05T10:13:12.985Z,28.97
2018-07-05T10:15:40.752Z,28.99
2018-07-05T10:18:08.915Z,29.08
2018-07-05T10:20:36.356Z,29.21
2018-07-05T10:23:03.772Z,29.48
2018-07-05T10:25:31.646Z,29.85
2018-07-05T10:27:59.314Z,30.52
2018-07-05T10:30:39.948Z,29.87
2018-07-05T10:33:20.035Z,30.14
2018-07-05T10:35:47.487Z,30.35
2018-07-05T10:38:16.088Z,30.79
2018-07-05T10:40:56.376Z,30.45
2018-07-05T10:43:36.028Z,30.83
2018-07-05T10:46:15.912Z,31.09
2018-07-05T10:48:56.605Z,31.85
2018-07-05T10:51:37.236Z,31.93
2018-07-05T10:54:17.382Z,31.44
2018-07-05T10:56:57.332Z,32.51
2018-07-05T10:59:36.985Z,31.91
2018-07-05T11:02:17.111Z,32.13
2018-07-05T11:04:57.025Z,31.51
2018-07-05T11:07:36.788Z,33.10
2018-07-05T11:10:16.685Z,32.94
2018-07-05T11:12:56.663Z,33.59
2018-07-05T11:15:36.559Z,33.48
2018-07-05T11:18:16.788Z,34.44
2018-07-05T11:20:56.774Z,34.43
2018-07-05T11:23:37.857Z,33.22
2018-07-05T11:26:18.185Z,33.39
2018-07-05T11:28:57.977Z,33.52
2018-07-05T11:31:37.604Z,34.76
2018-07-05T11:34:17.402Z,35.02
2018-07-05T11:36:57.258Z,34.93
2018-07-05T11:39:36.945Z,35.02
2018-07-05T11:42:17.143Z,36.23
2018-07-05T11:44:56.995Z,36.19
2018-07-05T11:47:36.867Z,34.48
2018-07-05T11:50:16.834Z,33.84
2018-07-05T11:52:56.548Z,34.99
2018-07-05T11:55:36.334Z,35.80
2018-07-05T11:58:16.251Z,36.13
2018-07-05T12:00:56.286Z,36.29
2018-07-05T12:03:36.236Z,36.97
2018-07-05T12:06:16.457Z,36.43
2018-07-05T12:08:56.491Z,35.95
2018-07-05T12:11:36.310Z,36.33
2018-07-05T12:14:16.323Z,35.41
2018-07-05T12:16:56.432Z,35.53
2018-07-05T12:19:36.943Z,36.60
2018-07-05T12:22:16.840Z,35.87
2018-07-05T12:24:57.546Z,36.82
2018-07-05T12:27:37.564Z,38.01
2018-07-05T12:30:17.443Z,36.58
2018-07-05T12:32:57.449Z,36.49
2018-07-05T12:35:37.634Z,37.20
2018-07-05T12:38:17.342Z,37.36
2018-07-05T12:40:57.447Z,35.05
2018-07-05T12:43:37.581Z,36.62
2018-07-05T12:46:17.476Z,35.92
2018-07-05T12:48:57.252Z,36.35
2018-07-05T12:51:36.918Z,35.46
2018-07-05T12:54:16.792Z,37.05
2018-07-05T12:56:57.136Z,36.34
2018-07-05T12:59:37.077Z,36.85
2018-07-05T13:02:17.847Z,35.69
2018-07-05T13:04:57.885Z,36.57
2018-07-05T13:07:37.811Z,37.09
2018-07-05T13:10:17.562Z,37.12
2018-07-05T13:12:57.411Z,38.00
2018-07-05T13:15:37.195Z,37.43
2018-07-05T13:18:17.435Z,36.57
2018-07-05T13:20:57.608Z,38.12
2018-07-05T13:23:37.406Z,38.03
2018-07-05T13:26:17.138Z,36.04
2018-07-05T13:28:56.954Z,37.08
2018-07-05T13:31:36.663Z,37.81
2018-07-05T13:34:16.302Z,37.21
2018-07-05T13:36:56.226Z,38.18
2018-07-05T13:39:36.277Z,38.39
2018-07-05T13:42:17.068Z,38.40
2018-07-05T13:44:56.783Z,38.65
2018-07-05T13:47:37.630Z,36.92
2018-07-05T13:50:17.639Z,37.75
2018-07-05T13:52:57.463Z,37.87
2018-07-05T13:55:37.327Z,37.16
2018-07-05T13:58:17.170Z,38.41
2018-07-05T14:00:57.207Z,38.22
2018-07-05T14:03:37.231Z,38.02
2018-07-05T14:06:17.004Z,38.36
2018-07-05T14:08:57.689Z,38.32
2018-07-05T14:11:37.654Z,38.63
2018-07-05T14:14:17.698Z,37.31
2018-07-05T14:16:57.570Z,39.83
2018-07-05T14:19:37.263Z,38.47
2018-07-05T14:22:17.283Z,39.92
2018-07-05T14:24:57.145Z,39.15
2018-07-05T14:27:37.041Z,38.53
2018-07-05T14:30:16.896Z,39.29
2018-07-05T14:32:56.778Z,38.76
2018-07-05T14:35:36.530Z,38.64
2018-07-05T14:38:16.188Z,38.53
2018-07-05T14:40:56.121Z,36.76
2018-07-05T14:43:35.989Z,35.83
2018-07-05T14:46:16.132Z,35.04
2018-07-05T14:48:55.913Z,35.25
2018-07-05T14:51:36.022Z,34.08
2018-07-05T14:54:15.798Z,34.00
2018-07-05T14:56:56.992Z,33.77
2018-07-05T14:59:36.862Z,33.60
2018-07-05T15:02:16.635Z,32.82
2018-07-05T15:04:58.045Z,33.25
2018-07-05T15:07:37.804Z,32.93
2018-07-05T15:10:17.445Z,32.91
2018-07-05T15:12:57.618Z,32.44
2018-07-05T15:15:37.430Z,32.84
2018-07-05T15:18:17.645Z,32.70
2018-07-05T15:20:58.275Z,32.94
2018-07-05T15:23:37.998Z,32.46
2018-07-05T15:26:18.027Z,32.40
2018-07-05T15:28:57.941Z,31.86
2018-07-05T15:31:38.127Z,33.15
2018-07-05T15:34:17.973Z,33.06
2018-07-05T15:36:57.881Z,33.12
2018-07-05T15:39:37.862Z,32.65
2018-07-05T15:42:17.647Z,32.97
2018-07-05T15:44:57.725Z,34.15
2018-07-05T15:47:37.805Z,34.23
2018-07-05T15:50:17.855Z,34.64
2018-07-05T15:52:57.704Z,34.18
2018-07-05T15:55:37.699Z,34.42
2018-07-05T15:58:17.509Z,34.44
2018-07-05T16:00:57.427Z,33.19
2018-07-05T16:03:37.114Z,32.35
2018-07-05T16:06:17.174Z,32.49
2018-07-05T16:08:56.860Z,32.92
2018-07-05T16:11:36.908Z,32.41
2018-07-05T16:14:16.561Z,34.53
2018-07-05T16:16:56.880Z,33.32
2018-07-05T16:19:37.451Z,32.73
2018-07-05T16:22:17.623Z,31.89
2018-07-05T16:24:57.512Z,31.84
2018-07-05T16:27:37.360Z,31.53
2018-07-05T16:30:17.238Z,31.68
2018-07-05T16:32:57.837Z,33.52
2018-07-05T16:35:37.454Z,34.69
2018-07-05T16:38:17.768Z,33.36
2018-07-05T16:40:57.637Z,31.37
2018-07-05T16:43:37.475Z,30.50
2018-07-05T16:46:17.313Z,30.49
2018-07-05T16:48:57.507Z,30.18
2018-07-05T16:51:37.963Z,30.05
2018-07-05T16:54:17.679Z,30.13
2018-07-05T16:56:57.818Z,29.95
2018-07-05T16:59:37.590Z,29.84
2018-07-05T17:02:18.378Z,29.98
2018-07-05T17:04:58.071Z,29.89
2018-07-05T17:07:37.871Z,29.65
2018-07-05T17:10:18.534Z,29.53
2018-07-05T17:12:58.871Z,29.42
2018-07-05T17:15:38.859Z,29.43
2018-07-05T17:18:19.203Z,29.30
2018-07-05T17:20:58.923Z,29.19
2018-07-05T17:23:38.690Z,29.13
2018-07-05T17:26:19.514Z,29.00
2018-07-05T17:28:59.696Z,29.02
2018-07-05T17:31:40.279Z,28.86
2018-07-05T17:34:20.353Z,28.86
2018-07-05T17:37:00.200Z,28.83
2018-07-05T17:39:40.001Z,28.81
2018-07-05T17:42:19.913Z,28.88
2018-07-05T17:44:59.727Z,28.49
2018-07-05T17:47:39.636Z,28.11
2018-07-05T17:50:19.696Z,27.97
2018-07-05T17:52:59.392Z,28.06
2018-07-05T17:55:39.139Z,27.81
2018-07-05T17:58:19.043Z,27.78
2018-07-05T18:00:59.277Z,27.71
2018-07-05T18:03:39.242Z,27.69
2018-07-05T18:06:19.789Z,27.57
2018-07-05T18:09:00.431Z,27.52
2018-07-05T18:11:40.552Z,27.44
2018-07-05T18:14:20.854Z,27.29
2018-07-05T18:17:00.829Z,27.18
2018-07-05T18:19:40.553Z,27.09
2018-07-05T18:22:21.257Z,27.09
2018-07-05T18:25:01.598Z,27.02
2018-07-05T18:27:41.568Z,26.91
2018-07-05T18:30:21.811Z,26.81
2018-07-05T18:33:01.811Z,26.76
2018-07-05T18:35:42.315Z,26.61
2018-07-05T18:38:21.896Z,26.54
2018-07-05T18:41:01.728Z,26.41
2018-07-05T18:43:41.918Z,26.39
2018-07-05T18:46:22.017Z,26.33
2018-07-05T18:49:01.833Z,26.28
2018-07-05T18:51:41.793Z,26.21
2018-07-05T18:54:21.660Z,26.08
2018-07-05T18:57:02.202Z,25.99
2018-07-05T18:59:43.281Z,25.96
2018-07-05T19:02:22.902Z,25.89
2018-07-05T19:05:03.018Z,25.75
2018-07-05T19:07:42.909Z,25.66
2018-07-05T19:10:23.387Z,25.60
2018-07-05T19:13:03.370Z,25.49
2018-07-05T19:15:43.282Z,25.39
2018-07-05T19:18:23.143Z,25.34
2018-07-05T19:21:03.248Z,25.35
2018-07-05T19:23:43.237Z,25.29
2018-07-05T19:26:30.015Z,25.22
2018-07-05T19:29:10.014Z,25.16
2018-07-05T19:31:50.009Z,25.12
2018-07-05T19:34:29.828Z,25.02
2018-07-05T19:37:09.895Z,24.93
2018-07-05T19:39:50.914Z,24.78
2018-07-05T19:42:30.725Z,24.80
2018-07-05T19:45:10.475Z,24.71
2018-07-05T19:47:50.257Z,24.60
2018-07-05T19:50:30.240Z,24.55
2018-07-05T19:53:10.070Z,24.47
2018-07-05T19:55:49.908Z,24.49
2018-07-05T19:58:29.723Z,24.35
2018-07-05T20:01:09.463Z,24.20
2018-07-05T20:03:49.308Z,24.12
2018-07-05T20:06:29.190Z,24.10
2018-07-05T20:09:09.355Z,23.98
2018-07-05T20:11:54.819Z,23.94
2018-07-05T20:14:34.739Z,23.94
2018-07-05T20:17:15.079Z,23.84
2018-07-05T20:19:55.037Z,23.74
2018-07-05T20:22:35.743Z,23.74
2018-07-05T20:25:17.209Z,23.73
2018-07-05T20:27:57.294Z,23.67
2018-07-05T20:30:37.066Z,23.63
2018-07-05T20:33:17.062Z,23.55
2018-07-05T20:35:57.071Z,23.50
2018-07-05T20:38:37.140Z,23.40
2018-07-05T20:41:17.962Z,23.31
2018-07-05T20:43:57.939Z,23.16
2018-07-05T20:46:38.262Z,23.13
2018-07-05T20:49:18.216Z,23.12
2018-07-05T20:51:59.017Z,23.01
2018-07-05T20:54:38.698Z,22.86
2018-07-05T20:57:18.440Z,22.80
2018-07-05T20:59:58.790Z,22.72
2018-07-05T21:02:38.728Z,22.69
2018-07-05T21:05:18.673Z,22.69
2018-07-05T21:07:58.666Z,22.68
2018-07-05T21:10:38.590Z,22.67
2018-07-05T21:13:18.523Z,22.57
2018-07-05T21:15:58.350Z,22.45
2018-07-05T21:18:38.172Z,22.33
2018-07-05T21:21:18.414Z,22.31
2018-07-05T21:23:58.414Z,22.27
2018-07-05T21:29:27.293Z,22.15
2018-07-05T21:32:07.357Z,22.11
2018-07-05T21:34:47.502Z,22.08
2018-07-05T21:37:27.142Z,21.96
2018-07-05T21:40:06.996Z,21.91
2018-07-05T21:42:47.034Z,21.84
2018-07-05T21:45:28.035Z,21.72
2018-07-05T21:48:07.858Z,21.65
2018-07-05T21:50:48.312Z,21.59
2018-07-05T21:53:28.103Z,21.51
2018-07-05T21:56:08.027Z,21.41
2018-07-05T21:58:47.834Z,21.41
2018-07-05T22:01:27.555Z,21.32
2018-07-05T22:04:07.339Z,21.21
2018-07-05T22:06:47.154Z,21.15
2018-07-05T22:09:27.058Z,21.02
2018-07-05T22:12:07.091Z,20.96
2018-07-05T22:14:47.339Z,20.94
2018-07-05T22:17:32.355Z,20.80
2018-07-05T22:20:17.227Z,20.72
2018-07-05T22:23:02.438Z,20.72
2018-07-05T22:25:47.651Z,20.69
2018-07-05T22:28:32.819Z,20.62
2018-07-05T22:31:18.847Z,20.56
2018-07-05T22:33:58.509Z,20.46
2018-07-05T22:36:38.347Z,20.39
2018-07-05T22:39:18.216Z,20.26
2018-07-05T22:41:58.291Z,20.19
2018-07-05T22:44:37.855Z,20.22
2018-07-05T22:47:17.655Z,20.14
2018-07-05T22:49:57.232Z,20.09
2018-07-05T22:52:37.051Z,20.04
2018-07-05T22:55:17.070Z,19.98
2018-07-05T22:57:57.184Z,19.93
2018-07-05T23:00:36.839Z,19.80
2018-07-05T23:03:16.595Z,19.73
2018-07-05T23:05:56.320Z,19.60
2018-07-05T23:08:35.985Z,19.65
2018-07-05T23:11:15.780Z,19.57
2018-07-05T23:13:56.237Z,19.41
2018-07-05T23:16:35.874Z,19.42
2018-07-05T23:19:15.594Z,19.38
2018-07-05T23:21:55.610Z,19.24
2018-07-05T23:24:35.622Z,19.21
2018-07-05T23:27:15.650Z,19.22
2018-07-05T23:29:55.571Z,19.13
2018-07-05T23:32:35.578Z,19.15
2018-07-05T23:35:15.310Z,19.09
2018-07-05T23:37:55.031Z,19.12
2018-07-05T23:40:34.858Z,18.98
2018-07-05T23:43:14.407Z,18.87
2018-07-05T23:45:54.388Z,18.91
2018-07-05T23:48:34.427Z,18.80
2018-07-05T23:51:14.146Z,18.74
2018-07-05T23:53:53.870Z,18.70
2018-07-05T23:56:33.678Z,18.69
2018-07-05T23:59:13.638Z,18.55
